Time;durP1;ratioP1;P1;durP2;ratioP2;P2;SDS_P1;SDS_P2;PMS_P1;PMS_P2;Temp;Humidity;BMP_temperature;BMP_pressure;BME280_temperature;BME280_humidity;BME280_pressure;Samples;Min_cycle;Max_cycle;Signal;HPM_P1;HPM_P2
2021/01/10 00:01:04;;;;;;;3.50;1.30;;;2.60;99.90;;;;;;5033368;28;20209;-82
2021/01/10 00:03:30;;;;;;;5.80;1.17;;;2.70;99.90;;;;;;5033914;28;20237;-80
2021/01/10 00:05:57;;;;;;;7.33;2.77;;;2.70;99.90;;;;;;5033916;28;20206;-83
2021/01/10 00:08:23;;;;;;;2.90;1.37;;;2.80;99.90;;;;;;5032592;28;20292;-82
2021/01/10 00:10:49;;;;;;;7.40;1.10;;;2.80;99.90;;;;;;5034780;28;20229;-83
2021/01/10 00:13:16;;;;;;;5.10;1.40;;;2.90;99.90;;;;;;5044263;28;20213;-84
2021/01/10 00:15:42;;;;;;;5.23;1.33;;;3.00;99.90;;;;;;5055104;28;20210;-83
2021/01/10 00:18:09;;;;;;;5.67;1.57;;;3.00;99.90;;;;;;5054010;28;20213;-83
2021/01/10 00:20:38;;;;;;;18.50;2.23;;;3.10;99.90;;;;;;5047596;28;20208;-82
2021/01/10 00:23:04;;;;;;;5.63;1.40;;;3.20;99.90;;;;;;5048955;28;20292;-82
2021/01/10 00:25:30;;;;;;;5.03;1.20;;;3.20;99.90;;;;;;5048650;28;21130;-82
2021/01/10 00:27:56;;;;;;;3.23;0.90;;;3.20;99.90;;;;;;5050605;28;20478;-79
2021/01/10 00:30:23;;;;;;;5.50;1.13;;;3.20;99.90;;;;;;5047752;28;20245;-79
2021/01/10 00:32:50;;;;;;;6.07;1.17;;;3.30;99.90;;;;;;5033609;28;20214;-79
2021/01/10 00:35:18;;;;;;;2.40;1.10;;;3.40;99.90;;;;;;5019283;28;20209;-80
2021/01/10 00:37:46;;;;;;;3.37;1.00;;;3.40;99.90;;;;;;5027385;28;20191;-80
2021/01/10 00:40:13;;;;;;;9.17;1.37;;;3.50;99.90;;;;;;5023755;28;20309;-79
2021/01/10 00:42:41;;;;;;;6.60;1.60;;;3.50;99.90;;;;;;5025330;28;20233;-80
2021/01/10 00:45:08;;;;;;;3.23;1.43;;;3.60;99.90;;;;;;5026258;28;20199;-79
2021/01/10 00:47:35;;;;;;;2.70;0.87;;;3.70;99.90;;;;;;5025243;28;20199;-79
2021/01/10 00:50:01;;;;;;;8.63;1.17;;;3.80;99.90;;;;;;5025325;28;20229;-79
2021/01/10 00:52:29;;;;;;;3.93;1.30;;;3.90;99.90;;;;;;5025949;28;20202;-80
2021/01/10 00:54:56;;;;;;;3.70;1.27;;;4.00;99.90;;;;;;5026731;28;20206;-80
2021/01/10 00:57:22;;;;;;;4.30;1.07;;;4.00;99.90;;;;;;5027781;28;20202;-81
2021/01/10 00:59:49;;;;;;;4.40;1.10;;;4.10;99.90;;;;;;5026811;28;20198;-82
2021/01/10 01:02:15;;;;;;;3.73;1.10;;;4.20;99.90;;;;;;5027507;28;20195;-81
2021/01/10 01:04:42;;;;;;;5.63;1.53;;;4.30;99.90;;;;;;5030026;28;20210;-82
2021/01/10 01:07:08;;;;;;;4.13;1.10;;;4.30;99.90;;;;;;5028351;28;20207;-82
2021/01/10 01:09:35;;;;;;;3.90;1.40;;;4.30;99.90;;;;;;5026488;28;20231;-81
2021/01/10 01:12:04;;;;;;;4.93;1.13;;;4.40;99.90;;;;;;5028518;28;20264;-84
2021/01/10 01:14:30;;;;;;;5.37;1.43;;;4.40;99.90;;;;;;5029586;28;20602;-83
2021/01/10 01:16:57;;;;;;;7.13;1.70;;;4.50;99.90;;;;;;5028300;28;20482;-83
2021/01/10 01:19:23;;;;;;;24.07;2.83;;;4.50;99.90;;;;;;5028642;28;20847;-83
2021/01/10 01:21:51;;;;;;;5.23;1.00;;;4.50;99.90;;;;;;5029594;28;20269;-83
2021/01/10 01:24:19;;;;;;;4.73;1.13;;;4.60;99.90;;;;;;5028170;28;20234;-83
2021/01/10 01:26:47;;;;;;;3.10;1.00;;;4.60;99.90;;;;;;5029721;28;20221;-83
2021/01/10 01:29:13;;;;;;;5.60;1.17;;;4.60;99.90;;;;;;5029467;28;20284;-82
2021/01/10 01:31:39;;;;;;;2.27;1.00;;;4.60;99.90;;;;;;5028479;28;20199;-82
2021/01/10 01:34:06;;;;;;;6.07;1.50;;;4.70;99.90;;;;;;5029505;28;20512;-83
2021/01/10 01:36:33;;;;;;;2.77;1.00;;;4.60;99.90;;;;;;5029882;28;20194;-83
2021/01/10 01:39:01;;;;;;;2.60;0.90;;;4.70;99.90;;;;;;5029388;28;20618;-84
2021/01/10 01:41:28;;;;;;;2.47;1.10;;;4.70;99.90;;;;;;5017392;28;20369;-84
2021/01/10 01:43:55;;;;;;;6.77;1.00;;;4.80;99.90;;;;;;5010480;28;20226;-93
2021/01/10 01:46:27;;;;;;;2.40;1.07;;;4.70;99.90;;;;;;5011088;28;20203;-82
2021/01/10 01:48:54;;;;;;;4.73;0.90;;;4.70;99.90;;;;;;5010493;28;20844;-82
2021/01/10 01:51:21;;;;;;;5.10;1.10;;;4.70;99.90;;;;;;5009515;28;20246;-83
2021/01/10 01:53:48;;;;;;;5.57;1.03;;;4.70;99.90;;;;;;5011477;28;20226;-93
2021/01/10 01:56:14;;;;;;;4.27;0.90;;;4.70;99.90;;;;;;5009764;28;20215;-86
2021/01/10 01:59:01;;;;;;;4.23;0.90;;;4.70;99.90;;;;;;5009754;28;20208;-84
2021/01/10 02:01:28;;;;;;;7.47;1.33;;;4.60;99.90;;;;;;5011056;28;20257;-83
2021/01/10 02:04:10;;;;;;;3.07;1.10;;;4.60;99.90;;;;;;5011139;28;20199;-94
2021/01/10 02:06:42;;;;;;;2.53;1.30;;;4.60;99.90;;;;;;5010379;28;20209;-84
2021/01/10 02:09:12;;;;;;;6.70;1.20;;;4.60;99.90;;;;;;5026072;28;20519;-84
2021/01/10 02:11:42;;;;;;;4.40;1.37;;;4.60;99.90;;;;;;5030746;28;20314;-92
2021/01/10 02:14:14;;;;;;;8.30;1.30;;;4.60;99.90;;;;;;5031321;28;20225;-93
2021/01/10 02:16:41;;;;;;;3.50;1.20;;;4.60;99.90;;;;;;5030918;28;20605;-85
2021/01/10 02:19:13;;;;;;;4.53;1.00;;;4.70;99.90;;;;;;5030541;28;20199;-87
2021/01/10 02:21:43;;;;;;;4.60;1.60;;;4.70;99.90;;;;;;5030900;28;20217;-86
2021/01/10 02:24:12;;;;;;;4.17;1.03;;;4.70;99.90;;;;;;5030513;28;20217;-86
2021/01/10 02:26:39;;;;;;;9.20;1.00;;;4.70;99.90;;;;;;5030696;28;20206;-86
2021/01/10 02:29:05;;;;;;;2.77;0.90;;;4.80;99.90;;;;;;5030984;28;20197;-86
2021/01/10 02:31:35;;;;;;;4.77;0.90;;;4.80;99.90;;;;;;5029739;28;20210;-81
2021/01/10 02:34:04;;;;;;;3.17;0.83;;;4.80;99.90;;;;;;5014564;28;20207;-85
2021/01/10 02:36:36;;;;;;;3.57;0.80;;;4.80;99.90;;;;;;5011470;28;20273;-87
2021/01/10 02:39:05;;;;;;;4.13;0.90;;;4.80;99.90;;;;;;5010951;28;20647;-87
2021/01/10 02:41:43;;;;;;;3.33;0.70;;;4.80;99.90;;;;;;5011412;28;20265;-89
2021/01/10 02:44:17;;;;;;;4.07;1.00;;;4.70;99.90;;;;;;5011228;28;20867;-86
2021/01/10 02:46:48;;;;;;;6.03;1.60;;;4.70;99.90;;;;;;5011318;28;20217;-89
2021/01/10 02:49:15;;;;;;;3.03;1.23;;;4.70;99.90;;;;;;5011378;28;20226;-88
2021/01/10 02:51:41;;;;;;;3.70;1.57;;;4.70;99.90;;;;;;5011499;28;20227;-86
2021/01/10 02:54:08;;;;;;;4.60;1.77;;;4.70;99.90;;;;;;5011183;28;20206;-87
2021/01/10 02:56:41;;;;;;;6.27;1.40;;;4.70;99.90;;;;;;5011222;28;20214;-87
2021/01/10 02:59:09;;;;;;;4.37;1.17;;;4.80;99.90;;;;;;5011040;28;20218;-87
2021/01/10 03:01:37;;;;;;;5.10;1.27;;;4.80;99.90;;;;;;5011012;28;20514;-87
2021/01/10 03:04:04;;;;;;;4.40;1.20;;;4.90;99.90;;;;;;5010844;28;20234;-85
2021/01/10 03:06:31;;;;;;;4.47;1.20;;;4.90;99.90;;;;;;5010682;28;20211;-86
2021/01/10 03:08:58;;;;;;;5.47;1.47;;;4.90;99.90;;;;;;5032884;28;20238;-92
2021/01/10 03:11:25;;;;;;;4.83;1.27;;;4.90;99.90;;;;;;5049769;28;20204;-88
2021/01/10 03:13:52;;;;;;;5.10;1.43;;;4.90;99.90;;;;;;5050010;28;20213;-86
2021/01/10 03:16:19;;;;;;;1.60;1.00;;;4.90;99.90;;;;;;5050451;28;20214;-86
2021/01/10 03:18:46;;;;;;;3.87;1.50;;;4.90;99.90;;;;;;5053250;28;20209;-87
2021/01/10 03:21:13;;;;;;;2.03;1.10;;;4.90;99.90;;;;;;5050041;28;20206;-87
2021/01/10 03:23:39;;;;;;;4.10;1.40;;;4.90;99.90;;;;;;5049908;28;20201;-86
2021/01/10 03:26:05;;;;;;;5.63;1.43;;;4.90;99.90;;;;;;5050305;28;20194;-87
2021/01/10 03:28:32;;;;;;;3.07;1.17;;;4.90;99.90;;;;;;5050050;28;20970;-86
2021/01/10 03:30:59;;;;;;;6.17;1.40;;;4.90;99.90;;;;;;5050235;28;20272;-87
2021/01/10 03:33:26;;;;;;;5.33;1.73;;;4.90;99.90;;;;;;5050101;28;20206;-86
2021/01/10 03:35:52;;;;;;;8.23;2.73;;;5.00;99.90;;;;;;5050123;28;20209;-86
2021/01/10 03:38:18;;;;;;;9.63;2.90;;;5.00;99.90;;;;;;5050215;28;20202;-84
2021/01/10 03:40:44;;;;;;;8.87;2.93;;;5.00;99.90;;;;;;5050005;28;20531;-86
2021/01/10 03:43:11;;;;;;;5.87;1.80;;;5.00;99.90;;;;;;5049744;28;20205;-86
2021/01/10 03:45:37;;;;;;;7.50;2.30;;;5.00;99.90;;;;;;5048705;28;20201;-87
2021/01/10 03:48:05;;;;;;;9.90;2.00;;;5.00;99.90;;;;;;5049617;28;20202;-87
2021/01/10 03:50:31;;;;;;;5.33;1.50;;;5.00;99.90;;;;;;5049725;28;20232;-85
2021/01/10 03:52:57;;;;;;;7.80;1.70;;;5.00;99.90;;;;;;5050273;28;20728;-92
2021/01/10 03:55:24;;;;;;;3.77;1.60;;;5.00;99.90;;;;;;5050299;28;20198;-86
2021/01/10 03:57:50;;;;;;;3.07;1.00;;;5.00;99.90;;;;;;5049775;28;20263;-87
2021/01/10 04:00:17;;;;;;;4.10;1.50;;;5.00;99.90;;;;;;5049562;28;20224;-86
2021/01/10 04:02:43;;;;;;;4.37;1.50;;;5.00;99.90;;;;;;5042167;28;20211;-85
2021/01/10 04:05:11;;;;;;;5.27;1.43;;;4.90;99.90;;;;;;5012308;28;20305;-86
2021/01/10 04:07:38;;;;;;;4.30;1.27;;;4.90;99.90;;;;;;5029977;28;20214;-85
2021/01/10 04:10:05;;;;;;;6.70;1.50;;;4.90;99.90;;;;;;5030242;28;20230;-87
2021/01/10 04:12:32;;;;;;;6.33;1.30;;;5.00;99.90;;;;;;5028401;28;20217;-85
2021/01/10 04:14:58;;;;;;;2.73;1.07;;;5.00;99.90;;;;;;5045987;28;20213;-86
2021/01/10 04:17:25;;;;;;;3.63;1.20;;;5.10;99.90;;;;;;5047092;28;20201;-86
2021/01/10 04:19:52;;;;;;;5.03;1.47;;;5.00;99.90;;;;;;5046568;28;20616;-86
2021/01/10 04:22:19;;;;;;;2.50;1.10;;;5.00;99.90;;;;;;5046612;28;20299;-87
2021/01/10 04:24:46;;;;;;;5.53;1.20;;;5.00;99.90;;;;;;5049638;28;20206;-86
2021/01/10 04:27:12;;;;;;;6.27;2.10;;;5.00;99.90;;;;;;5052391;28;20805;-86
2021/01/10 04:29:39;;;;;;;7.60;1.87;;;5.00;99.90;;;;;;5053967;28;20222;-86
2021/01/10 04:32:06;;;;;;;3.77;1.70;;;5.00;99.90;;;;;;5053315;28;20252;-85
2021/01/10 04:34:32;;;;;;;4.23;1.60;;;5.00;99.90;;;;;;5052662;28;20271;-88
2021/01/10 04:36:58;;;;;;;4.50;2.00;;;5.00;99.90;;;;;;5053705;28;20202;-86
2021/01/10 04:39:26;;;;;;;6.33;1.50;;;5.00;99.90;;;;;;5052556;28;20222;-86
2021/01/10 04:41:53;;;;;;;5.87;1.57;;;5.00;99.90;;;;;;5050732;28;20232;-89
2021/01/10 04:44:23;;;;;;;8.17;1.10;;;5.00;99.90;;;;;;5049096;28;20293;-85
2021/01/10 04:46:49;;;;;;;3.73;1.53;;;4.90;99.90;;;;;;5047189;28;20202;-86
2021/01/10 04:49:17;;;;;;;3.17;1.10;;;4.90;99.90;;;;;;5046253;28;20202;-88
2021/01/10 04:51:45;;;;;;;5.93;1.57;;;5.00;99.90;;;;;;5049026;28;20217;-90
2021/01/10 04:54:13;;;;;;;3.37;1.10;;;5.10;99.90;;;;;;5053088;28;20201;-85
2021/01/10 04:56:43;;;;;;;4.93;1.20;;;5.10;99.90;;;;;;5052977;28;20216;-86
2021/01/10 04:59:09;;;;;;;4.37;1.30;;;5.00;99.90;;;;;;5052657;28;20190;-87
2021/01/10 05:01:41;;;;;;;5.47;1.83;;;4.90;99.90;;;;;;5052934;28;20202;-88
2021/01/10 05:04:08;;;;;;;4.03;1.30;;;4.90;99.90;;;;;;5052954;28;20205;-86
2021/01/10 05:06:35;;;;;;;6.70;1.20;;;4.80;99.90;;;;;;5012218;28;20211;-87
2021/01/10 05:09:02;;;;;;;2.83;1.37;;;4.80;99.90;;;;;;5007283;28;20279;-87
2021/01/10 05:11:29;;;;;;;4.53;1.47;;;4.80;99.90;;;;;;5010203;28;20231;-87
2021/01/10 05:13:56;;;;;;;4.30;2.27;;;4.80;99.90;;;;;;5025992;28;20241;-89
2021/01/10 05:16:23;;;;;;;5.53;1.40;;;4.70;99.90;;;;;;5032732;28;20194;-87
2021/01/10 05:18:50;;;;;;;2.93;1.50;;;4.70;99.90;;;;;;5032481;28;20206;-88
2021/01/10 05:21:19;;;;;;;5.23;1.60;;;4.70;99.90;;;;;;5032014;28;20199;-85
2021/01/10 05:23:45;;;;;;;9.27;1.97;;;4.70;99.90;;;;;;5032250;28;20552;-86
2021/01/10 05:26:12;;;;;;;4.00;2.03;;;4.70;99.90;;;;;;5030989;28;20207;-86
2021/01/10 05:28:38;;;;;;;5.70;1.67;;;4.70;99.90;;;;;;5031566;28;20191;-85
2021/01/10 05:31:10;;;;;;;6.77;1.33;;;4.60;99.90;;;;;;5031868;28;20493;-86
2021/01/10 05:33:49;;;;;;;6.47;3.43;;;4.70;99.90;;;;;;5030870;28;20248;-85
2021/01/10 05:36:29;;;;;;;5.00;3.20;;;4.80;99.90;;;;;;5031592;28;20257;-86
2021/01/10 05:38:55;;;;;;;7.57;3.37;;;5.00;99.90;;;;;;5032158;28;20210;-88
2021/01/10 05:41:23;;;;;;;6.00;3.53;;;5.00;99.90;;;;;;5031895;28;20484;-85
2021/01/10 05:44:00;;;;;;;8.90;4.07;;;5.00;99.90;;;;;;5030601;28;20227;-86
2021/01/10 05:46:31;;;;;;;8.30;3.97;;;5.10;99.90;;;;;;5031552;28;20211;-86
2021/01/10 05:48:59;;;;;;;7.80;4.00;;;5.10;99.90;;;;;;5031438;28;20481;-88
2021/01/10 05:51:28;;;;;;;6.37;4.03;;;5.00;99.90;;;;;;5031222;28;20226;-86
2021/01/10 05:53:54;;;;;;;7.73;3.97;;;5.00;99.90;;;;;;5031042;28;20231;-84
2021/01/10 05:56:20;;;;;;;6.37;3.80;;;5.00;99.90;;;;;;5031782;28;20199;-87
2021/01/10 05:58:55;;;;;;;4.13;3.50;;;4.90;99.90;;;;;;5031178;28;20206;-86
2021/01/10 06:01:23;;;;;;;10.87;3.83;;;4.80;99.90;;;;;;5026529;28;20313;-87
2021/01/10 06:03:51;;;;;;;6.17;3.20;;;4.80;99.90;;;;;;5024510;28;20210;-85
2021/01/10 06:06:17;;;;;;;8.50;3.53;;;4.80;99.90;;;;;;5031255;28;20646;-84
2021/01/10 06:08:44;;;;;;;7.97;3.80;;;4.70;99.90;;;;;;5042310;28;20244;-85
2021/01/10 06:11:19;;;;;;;9.20;4.67;;;4.60;99.90;;;;;;5050802;28;20226;-91
2021/01/10 06:13:50;;;;;;;7.00;4.60;;;4.60;99.90;;;;;;5051144;28;20202;-84
2021/01/10 06:16:17;;;;;;;6.83;3.63;;;4.50;99.90;;;;;;5051677;28;20287;-84
2021/01/10 06:18:53;;;;;;;6.37;3.60;;;4.50;99.90;;;;;;5050509;28;20213;-86
2021/01/10 06:21:22;;;;;;;5.60;3.40;;;4.50;99.90;;;;;;5050787;28;20197;-90
2021/01/10 06:23:50;;;;;;;5.57;3.43;;;4.40;99.90;;;;;;5050806;28;20206;-85
2021/01/10 06:26:18;;;;;;;14.20;4.37;;;4.40;99.90;;;;;;5050457;28;20224;-84
2021/01/10 06:29:00;;;;;;;5.83;3.20;;;4.40;99.90;;;;;;5051137;28;20205;-89
2021/01/10 06:31:31;;;;;;;7.33;3.90;;;4.40;99.90;;;;;;5047866;28;20222;-84
2021/01/10 06:34:01;;;;;;;5.73;3.10;;;4.40;99.90;;;;;;5051118;28;20194;-85
2021/01/10 06:36:29;;;;;;;6.20;3.43;;;4.50;99.90;;;;;;5050527;28;20190;-91
2021/01/10 06:39:00;;;;;;;7.57;3.37;;;4.50;99.90;;;;;;5049835;28;20225;-89
2021/01/10 06:42:05;;;;;;;5.27;3.20;;;4.40;99.90;;;;;;5050336;28;20202;-84
2021/01/10 06:44:35;;;;;;;7.13;3.20;;;4.40;99.90;;;;;;5050117;28;20229;-84
2021/01/10 06:47:02;;;;;;;5.03;3.23;;;4.40;99.90;;;;;;5044585;28;20244;-91
2021/01/10 06:49:29;;;;;;;6.07;3.33;;;4.40;99.90;;;;;;5030430;28;20256;-87
2021/01/10 06:51:58;;;;;;;8.07;3.20;;;4.30;99.90;;;;;;5031449;28;20217;-85
2021/01/10 06:54:24;;;;;;;6.17;3.50;;;4.30;99.90;;;;;;5030845;28;20234;-87
2021/01/10 06:56:53;;;;;;;5.57;3.77;;;4.20;99.90;;;;;;5031118;28;20853;-90
2021/01/10 06:59:20;;;;;;;9.43;4.03;;;4.20;99.90;;;;;;5031351;28;20233;-87
2021/01/10 07:02:01;;;;;;;5.63;3.43;;;4.10;99.90;;;;;;5031513;28;20210;-87
2021/01/10 07:04:55;;;;;;;6.90;4.37;;;4.20;99.90;;;;;;5031379;28;20257;-91
2021/01/10 07:07:32;;;;;;;6.37;3.23;;;4.10;99.90;;;;;;5030145;28;20289;-88
2021/01/10 07:09:58;;;;;;;6.30;3.47;;;4.10;99.90;;;;;;5030851;28;20982;-91
2021/01/10 07:12:25;;;;;;;7.07;3.60;;;4.10;99.90;;;;;;5031192;28;20272;-95
2021/01/10 07:14:51;;;;;;;6.67;4.07;;;4.10;99.90;;;;;;5017917;28;20203;-88
2021/01/10 07:17:19;;;;;;;6.97;3.87;;;4.20;99.90;;;;;;5011390;28;20206;-88
2021/01/10 07:19:51;;;;;;;6.97;3.70;;;4.20;99.90;;;;;;5010754;28;20230;-88
2021/01/10 07:22:29;;;;;;;6.13;3.87;;;4.20;99.90;;;;;;5011032;28;20235;-90
2021/01/10 07:24:55;;;;;;;6.97;3.73;;;4.10;99.90;;;;;;5011981;28;20282;-86
2021/01/10 07:27:33;;;;;;;7.53;3.67;;;4.00;99.90;;;;;;5012339;28;20210;-86
2021/01/10 07:30:24;;;;;;;4.40;3.00;;;4.00;99.90;;;;;;5030438;28;20242;-94
2021/01/10 07:32:51;;;;;;;7.93;3.87;;;4.00;99.90;;;;;;5032213;28;20249;-85
2021/01/10 07:35:17;;;;;;;5.43;3.43;;;4.00;99.90;;;;;;5029931;28;20207;-87
2021/01/10 07:56:39;;;;;;;6.70;3.87;;;4.10;99.90;;;;;;5071359;28;20208;-87
2021/01/10 07:59:16;;;;;;;9.67;4.87;;;4.10;99.90;;;;;;5074400;28;20213;-87
2021/01/10 08:01:49;;;;;;;6.37;4.43;;;4.10;99.90;;;;;;5073937;28;20238;-89
2021/01/10 08:04:32;;;;;;;10.33;5.40;;;4.10;99.90;;;;;;5074112;28;20208;-91
2021/01/10 08:07:00;;;;;;;6.63;4.20;;;4.30;99.90;;;;;;5074039;28;20716;-88
2021/01/10 08:09:30;;;;;;;10.40;4.90;;;4.40;99.90;;;;;;5074057;28;20209;-94
2021/01/10 08:11:58;;;;;;;13.30;4.20;;;4.40;99.90;;;;;;5074110;28;20197;-93
2021/01/10 08:14:24;;;;;;;7.57;4.97;;;4.50;99.90;;;;;;5073300;28;20232;-88
2021/01/10 08:16:51;;;;;;;8.83;4.83;;;4.60;99.90;;;;;;5073014;28;20597;-88
2021/01/10 08:19:17;;;;;;;7.40;4.47;;;4.50;99.90;;;;;;5073545;28;20194;-90
2021/01/10 08:21:44;;;;;;;7.57;4.77;;;4.60;99.90;;;;;;5073722;28;20201;-92
2021/01/10 08:24:11;;;;;;;6.90;5.03;;;4.60;99.90;;;;;;5073166;28;20190;-88
2021/01/10 08:26:39;;;;;;;8.60;4.63;;;4.60;99.90;;;;;;5073566;28;20232;-90
2021/01/10 08:29:06;;;;;;;7.03;4.50;;;4.60;99.90;;;;;;5074328;28;20212;-90
2021/01/10 08:31:34;;;;;;;9.20;4.40;;;4.60;99.90;;;;;;5074145;28;20629;-93
2021/01/10 08:34:02;;;;;;;8.10;3.80;;;4.60;99.90;;;;;;5074464;28;20600;-89
2021/01/10 08:36:29;;;;;;;8.57;4.33;;;4.60;99.90;;;;;;5073444;28;20217;-89
2021/01/10 08:38:57;;;;;;;9.20;4.60;;;4.50;99.90;;;;;;5074482;28;20783;-88
2021/01/10 08:41:26;;;;;;;5.80;4.03;;;4.50;99.90;;;;;;5074796;28;20201;-91
2021/01/10 08:43:54;;;;;;;10.50;5.30;;;4.60;99.90;;;;;;5074888;28;20204;-94
2021/01/10 08:46:22;;;;;;;7.83;4.13;;;4.70;99.90;;;;;;5074408;28;20193;-88
2021/01/10 08:48:48;;;;;;;10.67;4.40;;;4.70;99.90;;;;;;5073867;28;20217;-88
2021/01/10 08:51:33;;;;;;;5.43;3.90;;;4.80;99.90;;;;;;5073307;28;20798;-85
2021/01/10 08:53:59;;;;;;;6.93;4.20;;;4.80;99.90;;;;;;5073686;28;20209;-89
2021/01/10 08:56:27;;;;;;;7.63;4.37;;;4.90;99.90;;;;;;5072830;28;20236;-90
2021/01/10 08:58:54;;;;;;;6.30;3.93;;;4.90;99.90;;;;;;5073916;28;20197;-90
2021/01/10 09:01:23;;;;;;;7.40;4.73;;;4.80;99.90;;;;;;5072651;28;20822;-86
2021/01/10 09:04:00;;;;;;;7.97;4.37;;;4.90;99.90;;;;;;5074056;28;20216;-94
2021/01/10 09:06:32;;;;;;;7.30;3.90;;;4.90;99.90;;;;;;5073992;28;20201;-89
2021/01/10 09:09:03;;;;;;;6.57;3.90;;;4.90;99.90;;;;;;5073818;28;20853;-89
2021/01/10 09:11:32;;;;;;;4.57;3.40;;;5.00;99.90;;;;;;5073358;28;20278;-93
2021/01/10 09:14:01;;;;;;;6.47;3.90;;;5.10;99.90;;;;;;5069536;28;20212;-88
2021/01/10 09:16:31;;;;;;;8.80;4.77;;;5.10;99.90;;;;;;5075371;28;20262;-88
2021/01/10 09:18:58;;;;;;;8.17;4.57;;;5.10;99.90;;;;;;5075773;28;20593;-87
2021/01/10 09:21:27;;;;;;;7.77;5.23;;;5.10;99.90;;;;;;5073704;28;20202;-91
2021/01/10 09:23:55;;;;;;;7.07;4.57;;;5.10;99.90;;;;;;5073444;28;20368;-90
2021/01/10 09:26:29;;;;;;;7.77;4.20;;;5.10;99.90;;;;;;5073740;28;20251;-89
2021/01/10 09:28:55;;;;;;;9.03;4.23;;;5.20;99.90;;;;;;5072597;28;20213;-87
2021/01/10 09:31:39;;;;;;;7.90;4.13;;;5.20;99.90;;;;;;5072909;28;20217;-89
2021/01/10 09:34:05;;;;;;;8.53;5.00;;;5.20;99.90;;;;;;5072023;28;20308;-88
2021/01/10 09:36:32;;;;;;;5.77;4.17;;;5.20;99.90;;;;;;5072262;28;20233;-89
2021/01/10 09:38:59;;;;;;;9.67;5.23;;;5.30;99.90;;;;;;5072501;28;20189;-87
2021/01/10 09:41:26;;;;;;;13.23;5.87;;;5.30;99.90;;;;;;5072099;28;20243;-91
2021/01/10 09:43:53;;;;;;;9.13;6.10;;;5.40;99.90;;;;;;5067311;28;20915;-89
2021/01/10 09:46:28;;;;;;;9.03;5.57;;;5.40;99.90;;;;;;5066569;28;20243;-88
2021/01/10 09:48:56;;;;;;;10.60;5.60;;;5.50;99.90;;;;;;5066890;28;20201;-87
2021/01/10 09:51:23;;;;;;;8.40;5.30;;;5.40;99.90;;;;;;5052585;28;20638;-88
2021/01/10 09:53:50;;;;;;;10.43;5.53;;;5.40;99.90;;;;;;5052225;28;20210;-89
2021/01/10 09:56:45;;;;;;;9.57;5.77;;;5.30;99.90;;;;;;5050486;28;20291;-89
2021/01/10 09:59:40;;;;;;;7.00;5.23;;;5.40;99.90;;;;;;5051465;28;20210;-89
2021/01/10 10:02:18;;;;;;;12.57;6.30;;;5.50;99.90;;;;;;5051696;28;20224;-89
2021/01/10 10:04:47;;;;;;;9.93;5.40;;;5.50;99.90;;;;;;5050873;28;20213;-89
2021/01/10 10:07:28;;;;;;;9.40;5.93;;;5.50;99.90;;;;;;5051891;28;20276;-89
2021/01/10 10:09:54;;;;;;;11.40;6.60;;;5.50;99.90;;;;;;5051654;28;20570;-89
2021/01/10 10:12:22;;;;;;;11.17;5.50;;;5.40;99.90;;;;;;5046398;28;20201;-89
2021/01/10 10:14:56;;;;;;;13.20;7.03;;;5.40;99.90;;;;;;5049518;28;20193;-87
2021/01/10 10:17:26;;;;;;;11.37;5.83;;;5.50;99.90;;;;;;5051508;28;20300;-88
2021/01/10 10:19:53;;;;;;;11.67;5.57;;;5.50;99.90;;;;;;5051407;28;20206;-89
2021/01/10 10:22:28;;;;;;;8.80;6.13;;;5.40;99.90;;;;;;5051278;28;20194;-86
2021/01/10 10:24:55;;;;;;;10.07;5.40;;;5.40;99.90;;;;;;5053955;28;20209;-86
2021/01/10 10:27:22;;;;;;;9.30;6.33;;;5.40;99.90;;;;;;5051052;28;20212;-85
2021/01/10 10:29:48;;;;;;;10.77;6.20;;;5.50;99.90;;;;;;5050311;28;20310;-86
2021/01/10 10:32:15;;;;;;;13.53;6.73;;;5.50;99.90;;;;;;5051016;28;20228;-85
2021/01/10 10:34:41;;;;;;;9.20;6.10;;;5.50;99.90;;;;;;5053223;28;20210;-89
2021/01/10 10:37:09;;;;;;;8.70;6.00;;;5.60;99.90;;;;;;5050237;28;20271;-84
2021/01/10 10:39:35;;;;;;;10.50;5.70;;;5.60;99.90;;;;;;5049966;28;20210;-85
2021/01/10 10:42:02;;;;;;;10.90;6.67;;;5.60;99.90;;;;;;5050646;28;20259;-86
2021/01/10 10:44:28;;;;;;;11.70;6.80;;;5.60;99.90;;;;;;5050560;28;20202;-92
2021/01/10 10:46:55;;;;;;;11.27;6.07;;;5.60;99.90;;;;;;5050000;28;20215;-83
2021/01/10 10:49:21;;;;;;;8.53;6.27;;;5.60;99.90;;;;;;5049383;28;20190;-83
2021/01/10 10:51:47;;;;;;;10.90;6.27;;;5.70;99.90;;;;;;5049350;28;20264;-84
2021/01/10 10:54:15;;;;;;;12.10;6.70;;;5.80;99.90;;;;;;5049075;28;20606;-87
2021/01/10 10:56:42;;;;;;;8.73;6.47;;;5.80;99.90;;;;;;5050821;28;20213;-84
2021/01/10 10:59:09;;;;;;;10.57;6.20;;;5.80;99.90;;;;;;5069295;28;20235;-84
2021/01/10 11:01:40;;;;;;;10.90;6.43;;;5.80;99.90;;;;;;5067861;28;20197;-83
2021/01/10 11:04:07;;;;;;;11.20;6.20;;;5.80;99.90;;;;;;5067496;28;20193;-82
2021/01/10 11:06:33;;;;;;;12.17;6.20;;;5.90;99.90;;;;;;5068431;28;20208;-86
2021/01/10 11:09:00;;;;;;;10.43;6.60;;;5.90;99.90;;;;;;5068593;28;20209;-85
2021/01/10 11:11:35;;;;;;;12.20;6.27;;;5.90;99.90;;;;;;5068424;28;21038;-85
2021/01/10 11:14:01;;;;;;;8.80;6.13;;;5.90;99.90;;;;;;5051854;28;20260;-95
2021/01/10 11:16:31;;;;;;;11.63;7.27;;;5.80;99.90;;;;;;5046764;28;20590;-86
2021/01/10 11:18:58;;;;;;;12.83;6.80;;;5.80;99.90;;;;;;5045440;28;20219;-81
2021/01/10 11:21:29;;;;;;;12.17;7.13;;;5.70;99.90;;;;;;5043575;28;20205;-80
2021/01/10 11:23:55;;;;;;;10.50;7.07;;;5.70;99.90;;;;;;5044660;28;20206;-82
2021/01/10 11:26:22;;;;;;;15.50;8.53;;;5.70;99.90;;;;;;5046965;28;20209;-94
2021/01/10 11:28:49;;;;;;;16.60;8.63;;;5.70;99.90;;;;;;5044462;28;20198;-80
2021/01/10 11:31:17;;;;;;;13.57;8.10;;;5.60;99.90;;;;;;5045133;28;20232;-78
2021/01/10 11:33:43;;;;;;;12.70;7.97;;;5.60;99.90;;;;;;5044904;28;20268;-82
2021/01/10 11:36:10;;;;;;;9.47;6.90;;;5.70;99.90;;;;;;5045476;28;20543;-84
2021/01/10 11:38:37;;;;;;;10.90;7.37;;;5.70;99.90;;;;;;5045376;28;20221;-82
2021/01/10 11:41:08;;;;;;;11.40;8.23;;;5.80;99.90;;;;;;5044603;28;20606;-81
2021/01/10 11:43:34;;;;;;;13.33;8.57;;;5.90;99.90;;;;;;5045027;28;20516;-80
2021/01/10 11:46:03;;;;;;;14.90;9.20;;;5.90;99.90;;;;;;5046192;28;20209;-85
2021/01/10 11:48:29;;;;;;;13.33;8.10;;;5.90;99.90;;;;;;5045185;28;20205;-84
2021/01/10 11:50:55;;;;;;;14.63;8.63;;;5.80;99.90;;;;;;5045513;28;20864;-82
2021/01/10 11:53:22;;;;;;;12.03;8.57;;;5.80;99.90;;;;;;5046422;28;20304;-82
2021/01/10 11:55:48;;;;;;;15.97;9.77;;;5.80;99.90;;;;;;5034733;28;20632;-90
2021/01/10 11:58:14;;;;;;;14.57;9.00;;;5.90;99.90;;;;;;5027602;28;20222;-81
2021/01/10 12:00:41;;;;;;;15.00;9.60;;;5.90;99.90;;;;;;5037659;28;20202;-81
2021/01/10 12:03:08;;;;;;;13.77;9.30;;;5.90;99.90;;;;;;5044711;28;20205;-81
2021/01/10 12:05:35;;;;;;;15.30;9.27;;;5.90;99.90;;;;;;5036895;28;20206;-90
2021/01/10 12:08:01;;;;;;;15.90;9.20;;;5.90;99.90;;;;;;5037464;28;20499;-90
2021/01/10 12:10:28;;;;;;;17.37;9.63;;;5.80;99.90;;;;;;5039724;28;20233;-84
2021/01/10 12:12:54;;;;;;;16.47;9.63;;;5.90;99.90;;;;;;5035458;28;20225;-82
2021/01/10 12:15:21;;;;;;;17.37;9.87;;;5.90;99.90;;;;;;5033754;28;20199;-80
2021/01/10 12:17:48;;;;;;;14.13;10.30;;;5.90;99.90;;;;;;5032427;28;20257;-87
2021/01/10 12:20:15;;;;;;;15.07;9.53;;;5.90;99.90;;;;;;5025336;28;20202;-81
2021/01/10 12:22:42;;;;;;;14.53;10.10;;;6.00;99.90;;;;;;5031953;28;20217;-81
2021/01/10 12:25:09;;;;;;;18.83;10.07;;;6.00;99.90;;;;;;5044815;28;20210;-87
2021/01/10 12:27:36;;;;;;;17.67;10.47;;;6.00;99.90;;;;;;5046199;28;20197;-83
2021/01/10 12:30:03;;;;;;;15.97;9.10;;;5.90;99.90;;;;;;5045431;28;20198;-81
2021/01/10 12:32:34;;;;;;;15.70;10.13;;;6.00;99.90;;;;;;5045751;28;20274;-81
2021/01/10 12:35:01;;;;;;;14.03;8.80;;;6.00;99.90;;;;;;5046443;28;20217;-83
2021/01/10 12:37:28;;;;;;;18.93;11.80;;;5.90;99.90;;;;;;5049014;28;20609;-92
2021/01/10 12:39:54;;;;;;;15.53;10.40;;;6.00;99.90;;;;;;5049303;28;20189;-80
2021/01/10 12:42:22;;;;;;;11.87;8.80;;;6.00;99.90;;;;;;5048115;28;20214;-82
2021/01/10 12:44:48;;;;;;;11.77;8.47;;;6.00;99.90;;;;;;5047942;28;20226;-81
2021/01/10 12:47:15;;;;;;;12.50;8.30;;;6.00;99.90;;;;;;5049619;28;20202;-88
2021/01/10 12:49:41;;;;;;;14.07;10.33;;;5.90;99.90;;;;;;5048369;28;20276;-81
2021/01/10 12:52:07;;;;;;;12.73;9.10;;;5.90;99.90;;;;;;5047309;28;20657;-81
2021/01/10 12:54:34;;;;;;;17.13;9.20;;;5.90;99.90;;;;;;5048290;28;20202;-82
2021/01/10 12:57:01;;;;;;;14.23;9.57;;;6.00;99.90;;;;;;5069342;28;20233;-84
2021/01/10 12:59:27;;;;;;;16.00;9.80;;;6.00;99.90;;;;;;5069961;28;20205;-90
2021/01/10 13:01:54;;;;;;;16.93;9.13;;;6.10;99.90;;;;;;5070219;28;20351;-84
2021/01/10 13:04:20;;;;;;;14.47;9.67;;;6.10;99.90;;;;;;5069128;28;20205;-82
2021/01/10 13:06:46;;;;;;;17.07;9.70;;;6.00;99.90;;;;;;5068959;28;20193;-85
2021/01/10 13:09:12;;;;;;;14.07;8.97;;;5.90;99.90;;;;;;5069588;28;20300;-84
2021/01/10 13:11:40;;;;;;;13.87;8.63;;;6.00;99.90;;;;;;5067989;28;20228;-81
2021/01/10 13:14:06;;;;;;;14.33;8.77;;;6.00;99.90;;;;;;5054348;28;20943;-83
2021/01/10 13:16:33;;;;;;;15.77;10.07;;;6.10;99.90;;;;;;5048322;28;20263;-84
2021/01/10 13:18:59;;;;;;;16.47;9.73;;;6.10;99.90;;;;;;5049901;28;20598;-85